Time;durP1;ratioP1;P1;durP2;ratioP2;P2;SDS_P1;SDS_P2;PMS_P1;PMS_P2;Temp;Humidity;BMP_temperature;BMP_pressure;BME280_temperature;BME280_humidity;BME280_pressure;Samples;Min_cycle;Max_cycle;Signal;HPM_P1;HPM_P2
2022/12/12 00:00:16;;;;;;;;;;;;;;;;;;5052146;28;19999;-51
2022/12/12 00:02:41;;;;;;;;;;;;;;;;;;5052374;28;20007;-53
2022/12/12 00:05:07;;;;;;;;;;;;;;;;;;5050631;28;19909;-53
2022/12/12 00:07:33;;;;;;;;;;;;;;;;;;5052493;28;19971;-52
2022/12/12 00:10:00;;;;;;;;;;;;;;;;;;5052318;28;19916;-51
2022/12/12 00:12:26;;;;;;;;;;;;;;;;;;5052270;28;19913;-51
2022/12/12 00:14:52;;;;;;;;;;;;;;;;;;5052123;28;19970;-53
2022/12/12 00:17:18;;;;;;;;;;;;;;;;;;5052152;28;19978;-51
2022/12/12 00:19:44;;;;;;;;;;;;;;;;;;5051766;28;19966;-54
2022/12/12 00:22:10;;;;;;;;;;;;;;;;;;5052343;28;19909;-52
2022/12/12 00:24:35;;;;;;;;;;;;;;;;;;5052221;28;19904;-52
2022/12/12 00:27:01;;;;;;;;;;;;;;;;;;5052157;28;19955;-55
2022/12/12 00:29:27;;;;;;;;;;;;;;;;;;5051724;28;19911;-53
2022/12/12 00:31:53;;;;;;;;;;;;;;;;;;5052019;28;19909;-55
2022/12/12 00:34:19;;;;;;;;;;;;;;;;;;5051949;28;19905;-52
2022/12/12 00:36:45;;;;;;;;;;;;;;;;;;5051778;28;20262;-51
2022/12/12 00:39:11;;;;;;;;;;;;;;;;;;5051653;28;20100;-50
2022/12/12 00:41:37;;;;;;;;;;;;;;;;;;5045293;28;19920;-51
2022/12/12 00:44:03;;;;;;;;;;;;;;;;;;5033439;28;20011;-52
2022/12/12 00:46:29;;;;;;;;;;;;;;;;;;5043294;28;19913;-50
2022/12/12 00:48:54;;;;;;;;;;;;;;;;;;5031630;28;19917;-52
2022/12/12 00:51:20;;;;;;;;;;;;;;;;;;5035265;28;19913;-51
2022/12/12 00:53:46;;;;;;;;;;;;;;;;;;5052009;28;19916;-50
2022/12/12 00:56:12;;;;;;;;;;;;;;;;;;5043246;28;20369;-52
2022/12/12 00:58:38;;;;;;;;;;;;;;;;;;5042668;28;19917;-51
2022/12/12 01:01:05;;;;;;;;;;;;;;;;;;5044035;28;19914;-52
2022/12/12 01:03:31;;;;;;;;;;;;;;;;;;5031773;28;19913;-52
2022/12/12 01:05:57;;;;;;;;;;;;;;;;;;5030446;28;20444;-52
2022/12/12 01:08:23;;;;;;;;;;;;;;;;;;5031516;28;19913;-50
2022/12/12 01:10:48;;;;;;;;;;;;;;;;;;5034229;28;19913;-52
2022/12/12 01:13:14;;;;;;;;;;;;;;;;;;5039935;28;19913;-50
2022/12/12 01:15:40;;;;;;;;;;;;;;;;;;5046460;28;20381;-51
2022/12/12 01:18:06;;;;;;;;;;;;;;;;;;5036099;28;19917;-56
2022/12/12 01:20:32;;;;;;;;;;;;;;;;;;5055089;28;19913;-51
2022/12/12 01:22:58;;;;;;;;;;;;;;;;;;5038876;28;19913;-53
2022/12/12 01:25:24;;;;;;;;;;;;;;;;;;5036477;28;19963;-53
2022/12/12 01:27:50;;;;;;;;;;;;;;;;;;5051372;28;19908;-53
2022/12/12 01:30:17;;;;;;;;;;;;;;;;;;5051379;28;19920;-53
2022/12/12 01:32:43;;;;;;;;;;;;;;;;;;5047227;28;19983;-51
2022/12/12 01:35:09;;;;;;;;;;;;;;;;;;5055509;28;20377;-51
2022/12/12 01:37:35;;;;;;;;;;;;;;;;;;5042049;28;19913;-51
2022/12/12 01:40:01;;;;;;;;;;;;;;;;;;5054983;28;20438;-51
2022/12/12 01:42:27;;;;;;;;;;;;;;;;;;5045156;28;19958;-52
2022/12/12 01:44:53;;;;;;;;;;;;;;;;;;5035077;28;19932;-51
2022/12/12 01:47:18;;;;;;;;;;;;;;;;;;5034893;28;20304;-55
2022/12/12 01:49:44;;;;;;;;;;;;;;;;;;5033359;28;19917;-54
2022/12/12 01:52:10;;;;;;;;;;;;;;;;;;5034884;28;19909;-51
2022/12/12 01:54:36;;;;;;;;;;;;;;;;;;5044594;28;19920;-55
2022/12/12 01:57:02;;;;;;;;;;;;;;;;;;5054709;28;19936;-52
2022/12/12 01:59:28;;;;;;;;;;;;;;;;;;5053097;28;20377;-51
2022/12/12 02:01:54;;;;;;;;;;;;;;;;;;5053335;28;19916;-52
2022/12/12 02:04:20;;;;;;;;;;;;;;;;;;5054637;28;19909;-55
2022/12/12 02:06:46;;;;;;;;;;;;;;;;;;5053595;28;19913;-51
2022/12/12 02:09:12;;;;;;;;;;;;;;;;;;5054296;28;19909;-51
2022/12/12 02:11:38;;;;;;;;;;;;;;;;;;5054318;28;19962;-51
2022/12/12 02:14:03;;;;;;;;;;;;;;;;;;5054415;28;19931;-52
2022/12/12 02:16:29;;;;;;;;;;;;;;;;;;5054240;28;19996;-53
2022/12/12 02:18:55;;;;;;;;;;;;;;;;;;5054024;28;20339;-52
2022/12/12 02:21:21;;;;;;;;;;;;;;;;;;5053112;28;19916;-52
2022/12/12 02:23:48;;;;;;;;;;;;;;;;;;5054192;28;19962;-54
2022/12/12 02:26:14;;;;;;;;;;;;;;;;;;5053006;28;20284;-51
2022/12/12 02:28:40;;;;;;;;;;;;;;;;;;5053577;28;19992;-52
2022/12/12 02:31:06;;;;;;;;;;;;;;;;;;5043334;28;20432;-51
2022/12/12 02:33:32;;;;;;;;;;;;;;;;;;5034355;28;19999;-52
2022/12/12 02:35:58;;;;;;;;;;;;;;;;;;5034212;28;20308;-51
2022/12/12 02:38:23;;;;;;;;;;;;;;;;;;5037598;28;20023;-55
2022/12/12 02:40:49;;;;;;;;;;;;;;;;;;5047359;28;20254;-57
2022/12/12 02:43:15;;;;;;;;;;;;;;;;;;5053647;28;20308;-54
2022/12/12 02:45:41;;;;;;;;;;;;;;;;;;5033809;28;19943;-51
2022/12/12 02:48:07;;;;;;;;;;;;;;;;;;5032092;28;20349;-52
2022/12/12 02:50:33;;;;;;;;;;;;;;;;;;5034163;28;19963;-52
2022/12/12 02:52:59;;;;;;;;;;;;;;;;;;5040791;28;19920;-53
2022/12/12 02:55:25;;;;;;;;;;;;;;;;;;5051904;28;19909;-53
2022/12/12 02:57:51;;;;;;;;;;;;;;;;;;5032464;28;19909;-54
2022/12/12 03:00:17;;;;;;;;;;;;;;;;;;5032518;28;20358;-51
2022/12/12 03:02:43;;;;;;;;;;;;;;;;;;5032916;28;19910;-51
2022/12/12 03:07:53;;;;;;;;;;;;;;;;;;5033386;28;19916;-52
2022/12/12 03:10:19;;;;;;;;;;;;;;;;;;5031964;28;19909;-54
2022/12/12 03:12:47;;;;;;;;;;;;;;;;;;5033301;28;19952;-53
2022/12/12 03:15:13;;;;;;;;;;;;;;;;;;5033585;28;20002;-52
2022/12/12 03:17:39;;;;;;;;;;;;;;;;;;5033350;28;19909;-50
2022/12/12 03:20:05;;;;;;;;;;;;;;;;;;5033104;28;19960;-54
2022/12/12 03:22:31;;;;;;;;;;;;;;;;;;5033232;28;19914;-54
2022/12/12 03:24:57;;;;;;;;;;;;;;;;;;5033162;28;19920;-51
2022/12/12 03:27:23;;;;;;;;;;;;;;;;;;5033009;28;19909;-51
2022/12/12 03:29:49;;;;;;;;;;;;;;;;;;5032859;28;20373;-51
2022/12/12 03:32:15;;;;;;;;;;;;;;;;;;5035531;28;19979;-54
2022/12/12 03:34:41;;;;;;;;;;;;;;;;;;5052830;28;20376;-53
2022/12/12 03:37:07;;;;;;;;;;;;;;;;;;5053094;28;20446;-55
2022/12/12 03:39:32;;;;;;;;;;;;;;;;;;5051863;28;19917;-54
2022/12/12 03:41:58;;;;;;;;;;;;;;;;;;5051344;28;19913;-52
2022/12/12 03:44:24;;;;;;;;;;;;;;;;;;5052809;28;19909;-52
2022/12/12 03:46:50;;;;;;;;;;;;;;;;;;5048465;28;19921;-53
2022/12/12 03:49:16;;;;;;;;;;;;;;;;;;5037977;28;20320;-53
2022/12/12 03:51:42;;;;;;;;;;;;;;;;;;5041739;28;19932;-52
2022/12/12 03:54:08;;;;;;;;;;;;;;;;;;5045599;28;19963;-52
2022/12/12 03:56:34;;;;;;;;;;;;;;;;;;5037285;28;20019;-52
2022/12/12 03:59:00;;;;;;;;;;;;;;;;;;5032340;28;19913;-53
2022/12/12 04:01:26;;;;;;;;;;;;;;;;;;5036726;28;19935;-51
2022/12/12 04:03:52;;;;;;;;;;;;;;;;;;5033632;28;20407;-54
2022/12/12 04:06:27;;;;;;;;;;;;;;;;;;5040241;28;19928;-54
2022/12/12 04:14:22;;;;;;;;;;;;;;;;;;5036454;28;19920;-53
2022/12/12 04:16:48;;;;;;;;;;;;;;;;;;5051476;28;19912;-53
2022/12/12 04:23:13;;;;;;;;;;;;;;;;;;5049526;28;20373;-54
2022/12/12 04:24:44;;;;;;;;;;;;;;;;;;5032058;28;19920;-52
2022/12/12 04:27:10;;;;;;;;;;;;;;;;;;5032122;28;19909;-51
2022/12/12 04:29:36;;;;;;;;;;;;;;;;;;5039186;28;20292;-57
2022/12/12 04:32:02;;;;;;;;;;;;;;;;;;5051688;28;20400;-51
2022/12/12 04:34:28;;;;;;;;;;;;;;;;;;5048823;28;19919;-54
2022/12/12 04:36:54;;;;;;;;;;;;;;;;;;5043263;28;19909;-51
2022/12/12 04:39:20;;;;;;;;;;;;;;;;;;5043032;28;19917;-52
2022/12/12 04:41:46;;;;;;;;;;;;;;;;;;5042213;28;19913;-52
2022/12/12 04:44:12;;;;;;;;;;;;;;;;;;5031988;28;19909;-52
2022/12/12 04:46:38;;;;;;;;;;;;;;;;;;5042380;28;19920;-56
2022/12/12 04:49:04;;;;;;;;;;;;;;;;;;5037395;28;19917;-53
2022/12/12 04:51:30;;;;;;;;;;;;;;;;;;5054915;28;19909;-52
2022/12/12 04:53:56;;;;;;;;;;;;;;;;;;5055075;28;20515;-54
2022/12/12 04:56:22;;;;;;;;;;;;;;;;;;5050119;28;19971;-53
2022/12/12 04:58:48;;;;;;;;;;;;;;;;;;5055718;28;20517;-51
2022/12/12 05:01:14;;;;;;;;;;;;;;;;;;5047611;28;19909;-50
2022/12/12 05:03:40;;;;;;;;;;;;;;;;;;5034701;28;19916;-49
2022/12/12 05:06:06;;;;;;;;;;;;;;;;;;5035884;28;19909;-50
2022/12/12 05:08:32;;;;;;;;;;;;;;;;;;5045638;28;19948;-52
2022/12/12 05:10:58;;;;;;;;;;;;;;;;;;5037986;28;19945;-53
2022/12/12 05:13:24;;;;;;;;;;;;;;;;;;5046172;28;19979;-51
2022/12/12 05:15:50;;;;;;;;;;;;;;;;;;5034648;28;19909;-53
2022/12/12 05:18:16;;;;;;;;;;;;;;;;;;5035260;28;19909;-50
2022/12/12 05:20:42;;;;;;;;;;;;;;;;;;5034171;28;19955;-44
2022/12/12 05:23:08;;;;;;;;;;;;;;;;;;5035494;28;20012;-44
2022/12/12 05:25:33;;;;;;;;;;;;;;;;;;5035513;28;20434;-45
2022/12/12 05:27:59;;;;;;;;;;;;;;;;;;5040407;28;19913;-52
2022/12/12 05:30:26;;;;;;;;;;;;;;;;;;5035243;28;19909;-50
2022/12/12 05:32:52;;;;;;;;;;;;;;;;;;5035450;28;20008;-53
2022/12/12 05:35:17;;;;;;;;;;;;;;;;;;5035381;28;20377;-51
2022/12/12 05:37:43;;;;;;;;;;;;;;;;;;5035082;28;20012;-51
2022/12/12 05:40:09;;;;;;;;;;;;;;;;;;5035125;28;19920;-52
2022/12/12 05:42:35;;;;;;;;;;;;;;;;;;5035163;28;19916;-51
2022/12/12 05:45:01;;;;;;;;;;;;;;;;;;5035147;28;19916;-50
2022/12/12 05:47:27;;;;;;;;;;;;;;;;;;5035119;28;19913;-52
2022/12/12 05:49:53;;;;;;;;;;;;;;;;;;5035216;28;20008;-54
2022/12/12 05:52:19;;;;;;;;;;;;;;;;;;5035013;28;19995;-54
2022/12/12 05:54:45;;;;;;;;;;;;;;;;;;5034910;28;20012;-52
2022/12/12 05:57:11;;;;;;;;;;;;;;;;;;5034868;28;20000;-52
2022/12/12 05:59:37;;;;;;;;;;;;;;;;;;5034579;28;20116;-52
2022/12/12 06:02:03;;;;;;;;;;;;;;;;;;5032886;28;19913;-50
2022/12/12 06:04:28;;;;;;;;;;;;;;;;;;5034853;28;19956;-50
2022/12/12 06:06:54;;;;;;;;;;;;;;;;;;5034662;28;19909;-52
2022/12/12 06:09:20;;;;;;;;;;;;;;;;;;5034347;28;19910;-50
2022/12/12 06:11:46;;;;;;;;;;;;;;;;;;5034703;28;19909;-50
2022/12/12 06:14:12;;;;;;;;;;;;;;;;;;5034733;28;19954;-55
2022/12/12 06:16:38;;;;;;;;;;;;;;;;;;5053426;28;20277;-50
2022/12/12 06:19:04;;;;;;;;;;;;;;;;;;5054109;28;19916;-53
2022/12/12 06:21:30;;;;;;;;;;;;;;;;;;5054276;28;19909;-55
2022/12/12 06:23:56;;;;;;;;;;;;;;;;;;5048393;28;20416;-54
2022/12/12 06:26:22;;;;;;;;;;;;;;;;;;5054509;28;19916;-55
2022/12/12 06:28:47;;;;;;;;;;;;;;;;;;5053965;28;20373;-53
2022/12/12 06:31:13;;;;;;;;;;;;;;;;;;5054235;28;19913;-54
2022/12/12 06:33:39;;;;;;;;;;;;;;;;;;5054132;28;19909;-50
2022/12/12 06:36:06;;;;;;;;;;;;;;;;;;5054013;28;20332;-53
2022/12/12 06:38:32;;;;;;;;;;;;;;;;;;5053681;28;19953;-53
2022/12/12 06:40:58;;;;;;;;;;;;;;;;;;5054164;28;19975;-54
2022/12/12 06:43:24;;;;;;;;;;;;;;;;;;5054089;28;20012;-52
2022/12/12 06:45:49;;;;;;;;;;;;;;;;;;5053908;28;19952;-50
2022/12/12 06:48:15;;;;;;;;;;;;;;;;;;5053476;28;19913;-51
2022/12/12 06:50:41;;;;;;;;;;;;;;;;;;5053644;28;19909;-52
2022/12/12 06:53:07;;;;;;;;;;;;;;;;;;5053727;28;19920;-52
2022/12/12 06:55:33;;;;;;;;;;;;;;;;;;5053660;28;19909;-52
2022/12/12 06:57:59;;;;;;;;;;;;;;;;;;5053480;28;19916;-51
2022/12/12 07:00:25;;;;;;;;;;;;;;;;;;5053340;28;19912;-50
2022/12/12 07:02:51;;;;;;;;;;;;;;;;;;5053693;28;19932;-50
2022/12/12 07:05:17;;;;;;;;;;;;;;;;;;5053511;28;19913;-51
2022/12/12 07:07:43;;;;;;;;;;;;;;;;;;5053297;28;19916;-53
2022/12/12 07:10:09;;;;;;;;;;;;;;;;;;5053173;28;19909;-52
2022/12/12 07:12:34;;;;;;;;;;;;;;;;;;5052046;28;19916;-50
2022/12/12 07:15:00;;;;;;;;;;;;;;;;;;5052316;28;19909;-53
2022/12/12 07:17:26;;;;;;;;;;;;;;;;;;5053431;28;19915;-53
2022/12/12 07:19:52;;;;;;;;;;;;;;;;;;5052889;28;19919;-51
2022/12/12 07:22:18;;;;;;;;;;;;;;;;;;5051930;28;19909;-51
2022/12/12 07:24:44;;;;;;;;;;;;;;;;;;5053038;28;20327;-50
2022/12/12 07:27:10;;;;;;;;;;;;;;;;;;5053127;28;19915;-50
2022/12/12 07:29:36;;;;;;;;;;;;;;;;;;5052845;28;19909;-52
2022/12/12 07:32:02;;;;;;;;;;;;;;;;;;5053140;28;19913;-51
2022/12/12 07:34:36;;;;;;;;;;;;;;;;;;5110140;27;19912;-51
2022/12/12 07:37:02;;;;;;;;;;;;;;;;;;5110050;28;19995;-52
2022/12/12 07:39:28;;;;;;;;;;;;;;;;;;5108460;28;19961;-51
2022/12/12 07:41:54;;;;;;;;;;;;;;;;;;5110063;28;19961;-51
2022/12/12 07:44:20;;;;;;;;;;;;;;;;;;5109978;28;19953;-51
2022/12/12 07:46:46;;;;;;;;;;;;;;;;;;5110519;28;20296;-52
2022/12/12 07:49:11;;;;;;;;;;;;;;;;;;5109486;28;19908;-51
2022/12/12 07:51:37;;;;;;;;;;;;;;;;;;5109810;28;20355;-52
2022/12/12 07:54:03;;;;;;;;;;;;;;;;;;5109637;28;20375;-54
2022/12/12 07:56:29;;;;;;;;;;;;;;;;;;5109643;28;20304;-53
2022/12/12 07:58:55;;;;;;;;;;;;;;;;;;5109472;28;19904;-52
2022/12/12 08:01:21;;;;;;;;;;;;;;;;;;5109615;28;19915;-54
2022/12/12 08:03:47;;;;;;;;;;;;;;;;;;5109490;28;19908;-51
2022/12/12 08:06:15;;;;;;;;;;;;;;;;;;5109564;28;20372;-51
2022/12/12 08:08:40;;;;;;;;;;;;;;;;;;5109243;28;19904;-51
2022/12/12 08:11:06;;;;;;;;;;;;;;;;;;5109466;28;20460;-54
2022/12/12 08:13:33;;;;;;;;;;;;;;;;;;5109500;28;19915;-53
2022/12/12 08:15:59;;;;;;;;;;;;;;;;;;5109328;28;19908;-54
2022/12/12 08:18:25;;;;;;;;;;;;;;;;;;5109033;28;19915;-52
2022/12/12 08:20:50;;;;;;;;;;;;;;;;;;5109248;28;19930;-51
2022/12/12 08:23:16;;;;;;;;;;;;;;;;;;5109168;28;20427;-52
2022/12/12 08:25:42;;;;;;;;;;;;;;;;;;5109388;28;19908;-52
2022/12/12 08:28:08;;;;;;;;;;;;;;;;;;5109056;28;19978;-52
2022/12/12 08:30:34;;;;;;;;;;;;;;;;;;5107727;28;19908;-52
2022/12/12 08:33:00;;;;;;;;;;;;;;;;;;5108785;28;19923;-52
2022/12/12 08:35:26;;;;;;;;;;;;;;;;;;5108917;28;19915;-55
2022/12/12 08:37:52;;;;;;;;;;;;;;;;;;5108778;28;19908;-54
2022/12/12 08:40:18;;;;;;;;;;;;;;;;;;5108727;28;20381;-51
2022/12/12 08:42:44;;;;;;;;;;;;;;;;;;5108880;28;20093;-52
2022/12/12 08:45:09;;;;;;;;;;;;;;;;;;5099633;28;19908;-53
2022/12/12 08:47:35;;;;;;;;;;;;;;;;;;5093766;28;19908;-53
2022/12/12 08:50:01;;;;;;;;;;;;;;;;;;5094871;28;19908;-51
2022/12/12 08:52:27;;;;;;;;;;;;;;;;;;5095012;28;19951;-52
2022/12/12 08:54:53;;;;;;;;;;;;;;;;;;5095230;28;20332;-52
2022/12/12 08:57:19;;;;;;;;;;;;;;;;;;5093687;28;19966;-52
2022/12/12 08:59:45;;;;;;;;;;;;;;;;;;5094875;28;19974;-55
2022/12/12 09:02:11;;;;;;;;;;;;;;;;;;5094826;28;19947;-53
2022/12/12 09:04:37;;;;;;;;;;;;;;;;;;5094842;28;19919;-55
2022/12/12 09:07:03;;;;;;;;;;;;;;;;;;5094775;28;19912;-54
2022/12/12 09:09:29;;;;;;;;;;;;;;;;;;5094613;28;19908;-51
2022/12/12 09:11:55;;;;;;;;;;;;;;;;;;5095148;28;20287;-55
2022/12/12 09:14:21;;;;;;;;;;;;;;;;;;5094570;28;19918;-54
2022/12/12 09:16:47;;;;;;;;;;;;;;;;;;5094556;28;19965;-56
2022/12/12 09:19:12;;;;;;;;;;;;;;;;;;5094303;28;19908;-53
2022/12/12 09:21:38;;;;;;;;;;;;;;;;;;5094595;28;20132;-53
2022/12/12 09:24:04;;;;;;;;;;;;;;;;;;5094620;28;19909;-51
2022/12/12 09:26:31;;;;;;;;;;;;;;;;;;5094411;28;19908;-57
2022/12/12 09:28:56;;;;;;;;;;;;;;;;;;5094269;28;20163;-57
2022/12/12 09:31:22;;;;;;;;;;;;;;;;;;5094385;28;20295;-51
2022/12/12 09:33:49;;;;;;;;;;;;;;;;;;5094034;28;20006;-52
2022/12/12 09:36:15;;;;;;;;;;;;;;;;;;5094234;28;19923;-55
2022/12/12 09:38:41;;;;;;;;;;;4.20;99.90;;;;;;5093944;28;20365;-53
2022/12/12 09:41:09;;;;;;;;;;;3.50;96.50;;;;;;5094166;28;19923;-54
2022/12/12 09:43:37;;;;;;;;;;;3.50;96.20;;;;;;5094045;28;19908;-53
2022/12/12 09:46:06;;;;;;;;;;;3.60;95.90;;;;;;5094310;28;20288;-54
2022/12/12 09:48:31;;;;;;;;;;;;;;;;;;5093561;28;20011;-51
2022/12/12 09:50:57;;;;;;;;;;;;;;;;;;5093887;28;19947;-53
2022/12/12 09:53:23;;;;;;;;;;;;;;;;;;5093993;28;20394;-57
2022/12/12 09:55:49;;;;;;;;;;;;;;;;;;5093436;28;19962;-54
2022/12/12 09:58:15;;;;;;;;;;;;;;;;;;5093544;28;20011;-54
2022/12/12 10:00:41;;;;;;;;;;;;;;;;;;5093719;28;19938;-53
2022/12/12 10:03:07;;;;;;;;;;;;;;;;;;5093636;28;19912;-53
2022/12/12 10:05:33;;;;;;;;;;;;;;;;;;5093718;28;19915;-53
2022/12/12 10:07:59;;;;;;;;;;;;;;;;;;5093569;28;19909;-53
2022/12/12 10:10:25;;;;;;;;;;;;;;;;;;5093429;28;19908;-52
2022/12/12 10:12:51;;;;;;;;;;;;;;;;;;5093420;28;19919;-55
2022/12/12 10:15:17;;;;;;;;;;;;;;;;;;5093462;28;19919;-53
2022/12/12 10:17:43;;;;;;;;;;;;;;;;;;5091885;28;19908;-57
2022/12/12 10:20:08;;;;;;;;;;;;;;;;;;5092199;28;20387;-53
2022/12/12 10:22:34;;;;;;;;;;;;;;;;;;5093603;28;19908;-53
2022/12/12 10:25:00;;;;;;;;;;;;;;;;;;5093262;28;19908;-51
2022/12/12 10:27:26;;;;;;;;;;;;;;;;;;5093229;28;19908;-54
2022/12/12 10:29:52;;;;;;;;;;;;;;;;;;5092916;28;19916;-52
2022/12/12 10:32:18;;;;;;;;;;;;;;;;;;5091551;28;19958;-56
2022/12/12 10:34:44;;;;;;;;;;;;;;;;;;5093339;28;19912;-53
2022/12/12 10:37:10;;;;;;;;;;;;;;;;;;5093041;28;19991;-52
2022/12/12 10:39:36;;;;;;;;;;;;;;;;;;5092883;28;20341;-53
2022/12/12 10:42:02;;;;;;;;;;;;;;;;;;5091671;28;19987;-53
2022/12/12 10:44:28;;;;;;;;;;;;;;;;;;5092865;28;19999;-53
2022/12/12 10:46:54;;;;;;;;;;;;;;;;;;5092784;28;19908;-53
2022/12/12 10:49:19;;;;;;;;;;;;;;;;;;5092622;28;19908;-54
2022/12/12 10:51:45;;;;;;;;;;;;;;;;;;5092807;28;19915;-56
2022/12/12 10:54:11;;;;;;;;;;;;;;;;;;5092722;28;19918;-57
2022/12/12 10:56:37;;;;;;;;;;;;;;;;;;5091356;28;19948;-54
2022/12/12 10:59:04;;;;;;;;;;;;;;;;;;5092478;28;19908;-51
2022/12/12 11:01:30;;;;;;;;;;;;;;;;;;5092613;28;19908;-58
2022/12/12 11:03:56;;;;;;;;;;;;;;;;;;5092644;28;20425;-53
2022/12/12 11:06:22;;;;;;;;;;;;;;;;;;5092653;28;19944;-57
2022/12/12 11:08:48;;;;;;;;;;;;;;;;;;5092120;28;20373;-52
2022/12/12 11:11:13;;;;;;;;;;;;;;;;;;5092155;28;20002;-52
2022/12/12 11:13:39;;;;;;;;;;;;;;;;;;5087250;28;20022;-55
2022/12/12 11:16:05;;;;;;;;;;;;;;;;;;5081878;28;19919;-56
2022/12/12 11:18:31;;;;;;;;;;;;;;;;;;5087916;28;19916;-52
2022/12/12 11:20:57;;;;;;;;;;;;;;;;;;5078156;28;19916;-55
2022/12/12 11:23:23;;;;;;;;;;;;;;;;;;5081948;28;19912;-55
2022/12/12 11:25:49;;;;;;;;;;;;;;;;;;5079967;28;20345;-54
2022/12/12 11:28:15;;;;;;;;;;;;;;;;;;5072101;28;19919;-58
2022/12/12 11:30:41;;;;;;;;;;;;;;;;;;5082969;28;19918;-56
2022/12/12 11:33:07;;;;;;;;;;;;;;;;;;5081586;28;19920;-53
2022/12/12 11:35:33;;;;;;;;;;;;;;;;;;5084602;28;19912;-54
2022/12/12 11:37:59;;;;;;;;;;;;;;;;;;5072967;28;19912;-57
2022/12/12 11:40:26;;;;;;;;;;;;;;;;;;5076036;28;19951;-54
2022/12/12 11:42:52;;;;;;;;;;;;;;;;;;5078880;28;20445;-54
2022/12/12 11:45:17;;;;;;;;;;;;;;;;;;5089679;28;20003;-57
2022/12/12 11:47:43;;;;;;;;;;;;;;;;;;5092109;28;19908;-55
2022/12/12 11:50:09;;;;;;;;;;;;;;;;;;5076215;28;20435;-55
2022/12/12 11:52:35;;;;;;;;;;;;;;;;;;5070415;28;19920;-57
2022/12/12 11:55:01;;;;;;;;;;;;;;;;;;5075981;28;19912;-58
2022/12/12 11:57:27;;;;;;;;;;;;;;;;;;5080779;28;19961;-57
2022/12/12 11:59:53;;;;;;;;;;;;;;;;;;5071322;28;20416;-56
2022/12/12 12:02:19;;;;;;;;;;;;;;;;;;5079204;28;19919;-57
2022/12/12 12:04:45;;;;;;;;;;;;;;;;;;5078047;28;19913;-56
2022/12/12 12:07:11;;;;;;;;;;;;;;;;;;5079404;28;19913;-57
2022/12/12 12:09:37;;;;;;;;;;;;;;;;;;5071338;28;20428;-58
2022/12/12 12:12:03;;;;;;;;;;;;;;;;;;5076776;28;20352;-55
2022/12/12 12:14:29;;;;;;;;;;;;;;;;;;5080469;28;19928;-55
2022/12/12 12:16:55;;;;;;;;;;;;;;;;;;5078775;28;19920;-57
2022/12/12 12:19:21;;;;;;;;;;;;;;;;;;5089214;28;19912;-56
2022/12/12 12:21:47;;;;;;;;;;;;;;;;;;5094329;28;19961;-56
2022/12/12 12:24:13;;;;;;;;;;;;;;;;;;5094167;28;20376;-54
2022/12/12 12:26:39;;;;;;;;;;;;;;;;;;5075020;28;19909;-55
2022/12/12 12:29:05;;;;;;;;;;;;;;;;;;5080244;28;19912;-54
2022/12/12 12:31:31;;;;;;;;;;;3.70;95.40;;;;;;5081180;28;19995;-53
2022/12/12 12:33:57;;;;;;;;;;;;;;;;;;5084137;28;20065;-52
2022/12/12 12:36:22;;;;;;;;;;;;;;;;;;5089820;28;19919;-55
2022/12/12 12:38:58;;;;;;;;;;;19.00;45.80;;;;;;5077263;28;19987;-54
2022/12/12 12:41:24;;;;;;;;;;;;;;;;;;5076428;28;19912;-52
2022/12/12 12:43:50;;;;;;;;;;;;;;;;;;5080758;28;20320;-51
2022/12/12 12:46:20;;;;;;;;;;;20.00;42.20;;;;;;5076219;28;19913;-51
2022/12/12 12:48:45;;;;;;;;;;;;;;;;;;5088138;28;19922;-55
2022/12/12 12:51:11;;;;;;;;;;;;;;;;;;5088893;28;20003;-55
2022/12/12 12:53:37;;;;;;;;;;;;;;;;;;5082724;28;19920;-58
2022/12/12 12:56:03;;;;;;;;;;;;;;;;;;5082521;28;19912;-57
2022/12/12 12:58:29;;;;;;;;;;;;;;;;;;5077401;28;20428;-54
2022/12/12 13:00:55;;;;;;;;;;;;;;;;;;5081683;28;19974;-56
2022/12/12 13:03:21;;;;;;;;;;;;;;;;;;5091726;28;20430;-56
2022/12/12 13:05:49;;;;;;;;;;;;;;;;;;5074609;28;19912;-56
2022/12/12 13:08:15;;;;;;;;;;;;;;;;;;5082440;28;19919;-56
2022/12/12 13:10:41;;;;;;;;;;;;;;;;;;5094944;28;19908;-57
2022/12/12 13:13:06;;;;;;;;;;;;;;;;;;5081103;28;19916;-56
2022/12/12 13:15:32;;;;;;;;;;;;;;;;;;5089255;28;19912;-56
2022/12/12 13:18:00;;;;;;;;;;;;;;;;;;5085825;28;19912;-58
2022/12/12 13:20:26;;;;;;;;;;;;;;;;;;5074293;28;20262;-58
2022/12/12 13:22:52;;;;;;;;;;;;;;;;;;5074485;28;19915;-56
2022/12/12 13:25:18;;;;;;;;;;;;;;;;;;5074879;28;19952;-58
2022/12/12 13:27:44;;;;;;;;;;;;;;;;;;5092701;28;19948;-57
2022/12/12 13:30:10;;;;;;;;;;;;;;;;;;5086171;28;19919;-57
2022/12/12 13:32:36;;;;;;;;;;;;;;;;;;5094251;28;19912;-58
2022/12/12 13:35:02;;;;;;;;;;;;;;;;;;5094350;28;20383;-58
2022/12/12 13:37:28;;;;;;;;;;;;;;;;;;5075682;28;19919;-58
2022/12/12 13:39:54;;;;;;;;;;;;;;;;;;5092858;28;20016;-57
2022/12/12 13:42:20;;;;;;;;;;;;;;;;;;5089581;28;19912;-59
2022/12/12 13:44:46;;;;;;;;;;;;;;;;;;5075169;28;19912;-58
2022/12/12 13:47:12;;;;;;;;;;;;;;;;;;5074203;28;20031;-60
2022/12/12 13:49:38;;;;;;;;;;;;;;;;;;5073626;28;19958;-57
2022/12/12 13:52:04;;;;;;;;;;;;;;;;;;5089227;28;19912;-58
2022/12/12 13:54:29;;;;;;;;;;;;;;;;;;5093934;28;20452;-60
2022/12/12 13:56:55;;;;;;;;;;;;;;;;;;5089757;28;19961;-60
2022/12/12 13:59:21;;;;;;;;;;;;;;;;;;5084427;28;19912;-59
2022/12/12 14:01:47;;;;;;;;;;;;;;;;;;5088107;28;19920;-58
2022/12/12 14:04:13;;;;;;;;;;;;;;;;;;5093787;28;19908;-58
2022/12/12 14:06:39;;;;;;;;;;;;;;;;;;5092458;28;19908;-59
2022/12/12 14:09:05;;;;;;;;;;;;;;;;;;5091876;28;19912;-57
2022/12/12 14:11:31;;;;;;;;;;;;;;;;;;5081613;28;20023;-50
2022/12/12 14:13:57;;;;;;;;;;;;;;;;;;5092844;28;19981;-54
2022/12/12 14:16:23;;;;;;;;;;;;;;;;;;5082355;28;19948;-55
2022/12/12 14:18:49;;;;;;;;;;;;;;;;;;5072945;28;19958;-54
2022/12/12 14:21:15;;;;;;;;;;;;;;;;;;5081840;28;19966;-53
2022/12/12 14:23:40;;;;;;;;;;;;;;;;;;5093473;28;19943;-55
2022/12/12 14:26:06;;;;;;;;;;;;;;;;;;5092789;28;19977;-55
2022/12/12 14:28:33;;;;;;;;;;;;;;;;;;5091531;28;20007;-55
2022/12/12 14:30:59;;;;;;;;;;;;;;;;;;5091629;28;19919;-55
2022/12/12 14:33:25;;;;;;;;;;;;;;;;;;5093071;28;19951;-53
2022/12/12 14:35:51;;;;;;;;;;;;;;;;;;5093341;28;20372;-54
2022/12/12 14:38:16;;;;;;;;;;;;;;;;;;5090028;28;20694;-55
2022/12/12 14:40:44;;;;;;;;;;;;;;;;;;5079782;28;20034;-54
2022/12/12 14:43:10;;;;;;;;;;;;;;;;;;5084288;28;19918;-52
2022/12/12 14:45:36;;;;;;;;;;;;;;;;;;5099918;28;19908;-55
2022/12/12 14:48:02;;;;;;;;;;;;;;;;;;5108893;28;20015;-53
2022/12/12 14:50:27;;;;;;;;;;;;;;;;;;5092882;28;19912;-53
2022/12/12 14:52:54;;;;;;;;;;;;;;;;;;5093269;28;19912;-45
2022/12/12 14:55:20;;;;;;;;;;;;;;;;;;5091569;28;19958;-53
2022/12/12 14:57:46;;;;;;;;;;;;;;;;;;5092843;28;19908;-51
2022/12/12 15:00:12;;;;;;;;;;;;;;;;;;5088514;28;19961;-55
2022/12/12 15:02:38;;;;;;;;;;;;;;;;;;5071202;28;19909;-49
2022/12/12 15:05:04;;;;;;;;;;;;;;;;;;5073063;28;19983;-53
2022/12/12 15:07:30;;;;;;;;;;;;;;;;;;5092446;28;20403;-56
2022/12/12 15:09:56;;;;;;;;;;;;;;;;;;5087862;28;19965;-54
2022/12/12 15:12:22;;;;;;;;;;;;;;;;;;5077647;28;19912;-52
2022/12/12 15:14:48;;;;;;;;;;;;;;;;;;5080436;28;19986;-53
2022/12/12 15:17:14;;;;;;;;;;;;;;;;;;5102899;28;20299;-51
2022/12/12 15:19:40;;;;;;;;;;;;;;;;;;5092257;28;19915;-56
2022/12/12 15:22:06;;;;;;;;;;;;;;;;;;5092573;28;19927;-52
2022/12/12 15:24:32;;;;;;;;;;;;;;;;;;5087998;28;19912;-53
2022/12/12 15:26:58;;;;;;;;;;;;;;;;;;5070936;28;19920;-52
2022/12/12 15:29:24;;;;;;;;;;;;;;;;;;5088551;28;20295;-54
2022/12/12 15:31:50;;;;;;;;;;;;;;;;;;5087414;28;19948;-54
2022/12/12 15:34:15;;;;;;;;;;;;;;;;;;5092451;28;20015;-54
2022/12/12 15:36:42;;;;;;;;;;;;;;;;;;5092332;28;20406;-56
2022/12/12 15:39:08;;;;;;;;;;;;;;;;;;5081187;28;19916;-56
2022/12/12 15:41:34;;;;;;;;;;;;;;;;;;5080166;28;19921;-54
2022/12/12 15:43:59;;;;;;;;;;;;;;;;;;5095893;28;20383;-52
2022/12/12 15:46:25;;;;;;;;;;;;;;;;;;5090421;28;19912;-53
2022/12/12 15:48:51;;;;;;;;;;;;;;;;;;5086109;28;19912;-51
2022/12/12 15:51:17;;;;;;;;;;;;;;;;;;5071727;28;20024;-52
2022/12/12 15:53:43;;;;;;;;;;;;;;;;;;5080882;28;19916;-51
2022/12/12 15:56:10;;;;;;;;;;;;;;;;;;5086063;28;20003;-52
2022/12/12 15:58:36;;;;;;;;;;;;;;;;;;5090197;28;19916;-55
2022/12/12 16:01:02;;;;;;;;;;;;;;;;;;5083318;28;20401;-53
2022/12/12 16:03:28;;;;;;;;;;;;;;;;;;5081876;28;19924;-53
2022/12/12 16:05:53;;;;;;;;;;;;;;;;;;5087381;28;20289;-57
2022/12/12 16:08:19;;;;;;;;;;;;;;;;;;5075399;28;19909;-52
2022/12/12 16:10:45;;;;;;;;;;;;;;;;;;5089931;28;19919;-53
2022/12/12 16:13:11;;;;;;;;;;;;;;;;;;5110293;28;19912;-50
2022/12/12 16:15:38;;;;;;;;;;;;;;;;;;5102163;28;19922;-54
2022/12/12 16:18:04;;;;;;;;;;;;;;;;;;5083704;28;19913;-53
2022/12/12 16:20:29;;;;;;;;;;;;;;;;;;5075119;28;19935;-50
2022/12/12 16:22:55;;;;;;;;;;;;;;;;;;5079395;28;19978;-52
2022/12/12 16:25:21;;;;;;;;;;;;;;;;;;5075182;28;19962;-54
2022/12/12 16:27:50;;;;;;;;;;;3.70;90.90;;;;;;5083855;28;19923;-55
2022/12/12 16:30:16;;;;;;;;;;;;;;;;;;5078022;28;19913;-54
2022/12/12 16:32:42;;;;;;;;;;;;;;;;;;5086975;28;19919;-53
2022/12/12 16:35:08;;;;;;;;;;;;;;;;;;5086243;28;19961;-55
2022/12/12 16:37:34;;;;;;;;;;;;;;;;;;5087040;28;19913;-51
2022/12/12 16:40:00;;;;;;;;;;;;;;;;;;5087375;28;20333;-52
2022/12/12 16:42:26;;;;;;;;;;;;;;;;;;5091514;28;19909;-56